Flight Track Log - Related Links

Times and Time Zones

All times are in EDT time to prevent confusion due to time zone crossing. See the UCA4838 flight status page for this flight to view local times or setup timezone preferences in your user account.

Time Position Orientation Groundspeed Altitude Reporting Facility
EDT Latitude Longitude Course Direction KTS MPH feet Rate Location/Type
Wed 06:19:05 AM 43.1219 -77.6761 92° East 133 153 900  Level Cleveland Center
Wed 06:20:11 AM 43.1206 -77.6250 92° East 146 168 2,300 1,145 Climbing Cleveland Center
Wed 06:21:58 AM 43.0783 -77.5275 121° Southeast 183 211 4,200 1,186 Climbing Cleveland Center
Wed 06:22:58 AM 43.0497 -77.4664 123° Southeast 183 211 5,600 1,350 Climbing Cleveland Center
Wed 06:23:58 AM 43.0189 -77.4000 122° Southeast 194 223 6,900 1,450 Climbing Cleveland Center
Wed 06:24:58 AM 42.9878 -77.3361 124° Southeast 194 223 8,500 1,450 Climbing Cleveland Center
Wed 06:25:58 AM 42.9589 -77.2753 123° Southeast 194 223 9,800 1,188 Climbing Cleveland Center
Wed 06:28:25 AM 42.8864 -77.1158 122° Southeast 203 234 12,600 928 Climbing New York Center
Wed 06:29:25 AM 42.8506 -77.0447 124° Southeast 203 234 13,000 149 Climbing New York Center
Wed 06:30:26 AM 42.8092 -76.9614 124° Southeast 234 269 12,900 -40 Descending New York Center
Wed 06:31:54 AM 42.7453 -76.8203 122° Southeast 269 310 12,900  Level Boston Center
Wed 06:32:54 AM 42.7053 -76.7269 120° Southeast 280 322 12,900 50 Level Boston Center
Wed 06:33:54 AM 42.6628 -76.6364 123° Southeast 280 322 13,000 50 Climbing Boston Center
Wed 06:34:54 AM 42.6222 -76.5433 121° Southeast 280 322 13,000  Level Boston Center
Wed 06:35:54 AM 42.5817 -76.4531 121° Southeast 285 328 13,000  Level Boston Center
Wed 06:36:54 AM 42.5392 -76.3575 121° Southeast 285 328 13,000  Level Boston Center
Wed 06:37:54 AM 42.4986 -76.2647 121° Southeast 285 328 13,000  Level Boston Center
Wed 06:38:54 AM 42.4617 -76.1836 122° Southeast 285 328 13,000  Level Boston Center
Wed 06:39:54 AM 42.4208 -76.0939 122° Southeast 285 328 13,000  Level Boston Center
Wed 06:40:54 AM 42.3800 -76.0014 121° Southeast 292 336 13,000  Level Boston Center
Wed 06:41:54 AM 42.3350 -75.9033 122° Southeast 288 331 13,000  Level Boston Center
Wed 06:42:54 AM 42.2939 -75.8142 122° Southeast 288 331 13,000  Level Boston Center
Wed 06:43:54 AM 42.2489 -75.7106 120° Southeast 286 329 13,000  Level Boston Center
Wed 06:44:54 AM 42.2056 -75.6242 124° Southeast 286 329 13,000  Level Boston Center
Wed 06:45:54 AM 42.1644 -75.5325 121° Southeast 286 329 13,000  Level Boston Center
Wed 06:46:54 AM 42.1211 -75.4381 122° Southeast 286 329 13,000  Level Boston Center
Wed 06:47:54 AM 42.0775 -75.3464 123° Southeast 286 329 13,000  Level Boston Center
Wed 06:48:54 AM 42.0383 -75.2522 119° Southeast 286 329 13,000  Level Boston Center
Wed 06:49:54 AM 42.0031 -75.1558 116° Southeast 281 323 13,000  Level Boston Center
Wed 06:50:54 AM 41.9636 -75.0592 119° Southeast 286 329 13,000  Level Boston Center
Wed 06:51:54 AM 41.9283 -74.9628 116° Southeast 286 329 13,000 -500 Level Boston Center
Wed 06:52:54 AM 41.8589 -74.8986 145° Southeast 286 329 12,000 -1,150 Descending Boston Center
Wed 06:53:54 AM 41.7828 -74.8483 154° Southeast 303 349 10,700 -1,300 Descending Boston Center
Wed 06:54:54 AM 41.7069 -74.7956 153° Southeast 303 349 9,400 -1,250 Descending Boston Center
Wed 06:55:54 AM 41.6350 -74.7456 153° Southeast 303 349 8,200 -1,250 Descending Boston Center
Wed 06:56:54 AM 41.5608 -74.6956 153° Southeast 298 343 6,900 -1,050 Descending Boston Center
Wed 06:57:54 AM 41.4889 -74.6461 153° Southeast 298 343 6,100 -397 Descending Boston Center
Wed 06:59:10 AM 41.4000 -74.6000 159° South 274 315 6,000 -132 Descending New York TRACON
Wed 07:00:10 AM 41.3167 -74.6167 189° South 271 312 5,800 -550 Descending New York TRACON
Wed 07:01:10 AM 41.2500 -74.6167 180° South 283 326 4,900 -400 Descending New York TRACON
Wed 07:02:10 AM 41.1667 -74.6167 180° South 279 321 5,000 50 Climbing New York TRACON
Wed 07:03:10 AM 41.1000 -74.6000 169° South 268 308 5,000  Level New York TRACON
Wed 07:04:10 AM 41.0333 -74.5500 150° Southeast 262 302 5,000  Level New York TRACON
Wed 07:05:10 AM 40.9833 -74.5000 143° Southeast 273 314 5,000  Level New York TRACON
Wed 07:06:10 AM 40.9333 -74.5833 232° Southwest 252 290 5,000  Level New York TRACON
Wed 07:07:10 AM 40.8667 -74.6000 191° South 264 304 5,000  Level New York TRACON
Wed 07:08:10 AM 40.8000 -74.6000 180° South 264 304 5,000  Level New York TRACON
Wed 07:09:10 AM 40.7167 -74.5833 171° South 267 307 5,000  Level New York TRACON
Wed 07:10:10 AM 40.6500 -74.5667 169° South 267 307 5,000 -100 Level New York TRACON
Wed 07:11:10 AM 40.5833 -74.5500 169° South 269 310 4,800 -700 Descending New York TRACON
Wed 07:12:10 AM 40.5000 -74.5167 163° South 271 312 3,600 -900 Descending New York TRACON
Wed 07:13:10 AM 40.4333 -74.4833 159° South 261 300 3,000 -300 Descending New York TRACON
Wed 07:14:10 AM 40.4167 -74.4000 105° East 214 246 3,000  Level New York TRACON
Wed 07:15:10 AM 40.4333 -74.3333 72° East 201 231 3,000  Level New York TRACON
Wed 07:16:10 AM 40.4833 -74.3000 27° Northeast 183 211 3,000  Level New York TRACON
Wed 07:17:10 AM 40.5333 -74.2667 27° Northeast 181 208 3,000 -350 Level New York TRACON
Wed 07:18:10 AM 40.5667 -74.2333 37° Northeast 173 199 2,300 -750 Descending New York TRACON
Wed 07:19:10 AM 40.6167 -74.2167 14° North 151 174 1,500 -750 Descending New York TRACON
Wed 07:20:10 AM 40.6500 -74.2000 21° North 134 154 800 -700 Descending New York TRACON

Login

Don't have an account? Register now (free) for customized features, flight alerts, and more!